Terminal Aerodrome Forecast
Issued by NWS

Current Version | Previous Version | Graphics & Text | Print | Product List | Glossary On
Versions: 1 2 3 4 5 6 7 8 9 10 11 12 13 14 15 16 17 18 19 20 21 22 23 24 25 26 27 28 29 30 31
000
FTUS41 KILN 171700
TAFLUK
TAF
KLUK 171738Z 1718/1818 15004KT P6SM VCSH SCT050 OVC090
     FM180100 00000KT 5SM BR VCSH OVC040
     FM180900 00000KT 3SM BR VCSH OVC028
     FM181100 VRB03KT 2SM BR OVC015
     FM181400 23004KT 4SM HZ VCSH OVC028=

USA.gov is the U.S. government's official web portal to all federal, state and local government web resources and services.